Time;durP1;ratioP1;P1;durP2;ratioP2;P2;SDS_P1;SDS_P2;PMS_P1;PMS_P2;Temp;Humidity;BMP_temperature;BMP_pressure;BME280_temperature;BME280_humidity;BME280_pressure;Samples;Min_cycle;Max_cycle;Signal;HPM_P1;HPM_P2
2021/04/27 00:00:50;;;;;;;122.13;64.83;;;;;;;2.95;42.71;98953.04;115140;1200;103178;-79
2021/04/27 00:03:17;;;;;;;119.85;63.05;;;;;;;2.91;42.83;98951.47;114868;1200;103047;-79
2021/04/27 00:05:45;;;;;;;93.13;47.80;;;;;;;2.87;43.26;98952.52;114794;1200;103040;-79
2021/04/27 00:08:12;;;;;;;75.90;38.50;;;;;;;2.84;42.65;98948.26;114913;1200;103136;-79
2021/04/27 00:10:40;;;;;;;68.50;35.37;;;;;;;2.80;42.79;98944.05;114828;1199;103139;-79
2021/04/27 00:13:09;;;;;;;69.67;35.47;;;;;;;2.76;42.77;98943.34;114866;1199;103496;-78
2021/04/27 00:15:38;;;;;;;62.25;32.75;;;;;;;2.76;43.22;98947.72;114785;1200;103066;-78
2021/04/27 00:18:05;;;;;;;73.57;36.23;;;;;;;2.73;42.79;98940.84;114997;1200;103171;-80
2021/04/27 00:20:33;;;;;;;70.50;35.15;;;;;;;2.68;43.22;98938.39;114893;1200;103596;-80
2021/04/27 00:23:01;;;;;;;67.43;36.13;;;;;;;2.67;43.31;98938.47;114981;1200;103043;-79
2021/04/27 00:25:28;;;;;;;62.97;32.27;;;;;;;2.64;43.41;98935.98;114965;1200;103236;-81
2021/04/27 00:27:56;;;;;;;66.23;32.97;;;;;;;2.62;43.55;98932.55;114983;1200;103069;-81
2021/04/27 00:30:25;;;;;;;83.73;40.73;;;;;;;2.59;43.19;98933.55;115055;1200;103145;-79
2021/04/27 00:32:54;;;;;;;77.60;40.07;;;;;;;2.53;43.17;98925.93;115024;1199;103085;-80
2021/04/27 00:35:23;;;;;;;72.57;35.93;;;;;;;2.47;43.59;98934.06;115114;1199;103050;-77
2021/04/27 00:37:50;;;;;;;77.83;40.20;;;;;;;2.44;43.21;98929.80;114966;1199;103107;-78
2021/04/27 00:40:20;;;;;;;96.20;49.43;;;;;;;2.42;43.49;98933.39;114930;1200;103200;-78
2021/04/27 00:42:48;;;;;;;105.87;52.90;;;;;;;2.40;43.69;98933.47;115040;1200;103082;-79
2021/04/27 00:45:19;;;;;;;103.00;54.10;;;;;;;2.30;43.25;98934.76;114989;1200;103040;-79
2021/04/27 00:47:47;;;;;;;103.23;53.17;;;;;;;2.23;43.57;98936.79;114985;1200;103680;-76
2021/04/27 00:50:19;;;;;;;91.50;50.30;;;;;;;2.10;43.52;98941.66;114982;1200;103159;-76
2021/04/27 00:52:47;;;;;;;96.83;52.70;;;;;;;2.05;43.99;98935.73;114997;1199;103586;-80
2021/04/27 00:55:16;;;;;;;95.53;49.90;;;;;;;2.03;43.64;98927.09;114946;1199;103142;-79
2021/04/27 00:57:43;;;;;;;98.07;50.97;;;;;;;2.02;43.66;98933.26;115022;1200;103114;-77
2021/04/27 01:00:14;;;;;;;97.20;50.87;;;;;;;1.98;43.63;98929.88;114983;1199;103143;-78
2021/04/27 01:02:42;;;;;;;99.75;50.65;;;;;;;1.95;43.63;98931.78;115053;1200;103191;-77
2021/04/27 01:05:12;;;;;;;88.30;47.70;;;;;;;1.86;43.80;98920.73;114979;1200;103086;-77
2021/04/27 01:07:52;;;;;;;95.40;48.73;;;;;;;1.76;43.78;98919.38;114882;1200;103637;-81
2021/04/27 01:10:24;;;;;;;104.90;52.77;;;;;;;1.75;44.05;98926.41;114955;1200;103082;-79
2021/04/27 01:13:00;;;;;;;98.20;51.85;;;;;;;1.75;44.27;98915.92;114976;1200;103066;-79
2021/04/27 01:15:29;;;;;;;100.13;51.60;;;;;;;1.74;44.16;98921.20;114957;1199;103113;-81
2021/04/27 01:17:59;;;;;;;96.87;48.90;;;;;;;1.73;44.02;98914.25;114984;1200;103142;-79
2021/04/27 01:20:37;;;;;;;77.40;40.00;;;;;;;1.69;44.41;98910.91;114961;1199;103033;-80
2021/04/27 01:23:22;;;;;;;78.40;37.70;;;;;;;1.67;44.17;98909.24;114976;1200;103143;-79
2021/04/27 01:25:55;;;;;;;79.10;40.40;;;;;;;1.66;44.38;98910.16;114965;1199;103145;-76
2021/04/27 01:28:25;;;;;;;97.00;48.45;;;;;;;1.60;44.25;98912.13;114942;1200;103199;-77
2021/04/27 01:30:54;;;;;;;100.23;51.33;;;;;;;1.45;43.74;98905.67;115192;1200;103159;-78
2021/04/27 01:33:27;;;;;;;85.45;44.50;;;;;;;1.37;44.01;98917.38;115088;1200;104667;-80
2021/04/27 01:35:59;;;;;;;67.07;34.43;;;;;;;1.31;44.34;98913.23;114904;1200;103111;-76
2021/04/27 01:38:28;;;;;;;76.33;37.87;;;;;;;1.33;44.53;98914.02;114916;1200;103152;-76
2021/04/27 01:40:57;;;;;;;79.40;40.50;;;;;;;1.29;44.53;98921.13;114934;1200;103265;-76
2021/04/27 01:43:26;;;;;;;82.80;44.03;;;;;;;1.30;44.68;98916.76;114951;1199;103062;-76
2021/04/27 01:46:03;;;;;;;87.03;47.17;;;;;;;1.28;44.51;98910.72;115005;1199;103088;-76
2021/04/27 01:48:36;;;;;;;91.70;46.47;;;;;;;1.26;45.18;98909.92;115618;1200;103159;-76
2021/04/27 01:51:08;;;;;;;88.05;45.95;;;;;;;1.24;45.19;98906.50;115046;1200;103050;-79
2021/04/27 01:53:38;;;;;;;93.23;47.67;;;;;;;1.24;44.84;98903.88;115009;1200;103239;-78
2021/04/27 01:56:06;;;;;;;91.77;48.03;;;;;;;1.23;44.77;98904.79;114925;1200;103034;-77
2021/04/27 01:58:34;;;;;;;79.50;41.67;;;;;;;1.21;45.09;98904.86;114973;1200;103139;-76
2021/04/27 02:01:01;;;;;;;80.70;43.65;;;;;;;1.17;44.86;98909.34;114965;1200;103040;-77
2021/04/27 02:03:29;;;;;;;73.00;37.80;;;;;;;1.08;45.06;98899.19;114942;1200;103075;-77
2021/04/27 02:05:56;;;;;;;74.25;36.95;;;;;;;0.98;44.68;98897.84;115051;1200;103184;-78
2021/04/27 02:08:23;;;;;;;77.15;41.60;;;;;;;0.93;44.73;98890.13;115004;1200;103114;-76
2021/04/27 02:10:51;;;;;;;82.27;41.73;;;;;;;0.96;45.40;98891.80;114969;1199;103124;-78
2021/04/27 02:13:19;;;;;;;81.00;42.70;;;;;;;0.99;44.95;98896.94;114993;1199;103085;-78
2021/04/27 02:15:47;;;;;;;80.75;43.30;;;;;;;1.00;45.39;98894.24;115015;1199;103110;-77
2021/04/27 02:18:32;;;;;;;81.57;43.33;;;;;;;1.01;45.49;98895.95;114931;1199;103194;-77
2021/04/27 02:21:03;;;;;;;79.73;42.37;;;;;;;0.99;45.26;98892.53;115233;1199;103140;-77
2021/04/27 02:23:32;;;;;;;79.90;40.65;;;;;;;0.99;45.51;98896.94;115020;1200;103526;-77
2021/04/27 02:26:00;;;;;;;76.93;40.63;;;;;;;1.00;45.42;98899.48;114905;1200;103082;-78
2021/04/27 02:28:28;;;;;;;79.07;42.77;;;;;;;0.98;45.54;98898.68;115026;1199;103148;-81
2021/04/27 02:30:58;;;;;;;75.63;40.37;;;;;;;0.97;45.34;98896.97;114995;1200;103187;-82
2021/04/27 02:33:25;;;;;;;76.00;43.50;;;;;;;0.97;45.92;98898.75;114991;1200;103139;-81
2021/04/27 02:35:53;;;;;;;79.90;42.80;;;;;;;0.96;45.94;98897.05;115007;1200;103150;-80
2021/04/27 02:38:23;;;;;;;82.80;42.00;;;;;;;0.92;45.70;98893.66;115006;1200;103137;-82
2021/04/27 02:40:55;;;;;;;82.63;41.77;;;;;;;0.91;45.85;98894.56;114966;1200;103050;-81
2021/04/27 02:43:24;;;;;;;78.00;40.80;;;;;;;0.89;45.71;98896.39;115039;1200;103039;-82
2021/04/27 02:45:52;;;;;;;72.80;39.40;;;;;;;0.86;46.00;98888.64;114949;1200;103040;-80
2021/04/27 02:48:26;;;;;;;74.40;37.77;;;;;;;0.84;45.79;98891.33;114958;1199;103062;-80
2021/04/27 02:50:57;;;;;;;55.40;28.78;;;;;;;0.82;45.96;98894.89;115064;1200;103075;-81
2021/04/27 02:53:25;;;;;;;77.27;38.83;;;;;;;0.80;46.06;98889.72;115018;1200;103050;-82
2021/04/27 02:55:53;;;;;;;61.53;33.93;;;;;;;0.80;45.99;98891.50;115093;1199;103209;-82
2021/04/27 02:58:22;;;;;;;65.35;35.10;;;;;;;0.77;46.12;98892.45;115644;1200;100975;-81
2021/04/27 03:00:51;;;;;;;66.23;32.40;;;;;;;0.77;46.31;98900.30;115065;1199;103038;-80
2021/04/27 03:03:19;;;;;;;56.20;28.90;;;;;;;0.74;45.80;98903.89;115101;1200;103149;-81
2021/04/27 03:05:47;;;;;;;59.57;29.57;;;;;;;0.73;46.25;98886.48;115147;1199;103062;-83
2021/04/27 03:08:14;;;;;;;57.75;29.30;;;;;;;0.72;45.85;98892.63;115102;1200;103162;-80
2021/04/27 03:10:41;;;;;;;56.17;30.07;;;;;;;0.72;46.46;98891.75;114975;1200;103134;-81
2021/04/27 03:13:09;;;;;;;56.93;27.57;;;;;;;0.70;46.49;98893.56;115114;1199;103139;-82
2021/04/27 03:15:36;;;;;;;44.20;23.85;;;;;;;0.69;46.24;98892.73;114991;1199;103052;-79
2021/04/27 03:18:04;;;;;;;54.65;25.85;;;;;;;0.68;46.40;98896.25;114918;1200;103043;-78
2021/04/27 03:20:31;;;;;;;49.97;25.73;;;;;;;0.65;46.55;98895.48;114983;1200;103092;-78
2021/04/27 03:22:59;;;;;;;61.80;32.60;;;;;;;0.63;46.74;98900.80;115006;1200;103100;-79
2021/04/27 03:25:27;;;;;;;57.87;30.70;;;;;;;0.57;46.10;98896.64;115038;1200;103092;-77
2021/04/27 03:27:55;;;;;;;63.53;33.37;;;;;;;0.57;46.78;98904.48;114894;1200;103139;-80
2021/04/27 03:30:22;;;;;;;67.03;36.77;;;;;;;0.55;46.31;98901.06;115096;1200;103136;-80
2021/04/27 03:32:50;;;;;;;79.00;44.00;;;;;;;0.53;46.77;98905.50;115190;1199;103053;-77
2021/04/27 03:35:17;;;;;;;73.60;43.45;;;;;;;0.52;46.23;98905.53;114906;1199;103175;-76
2021/04/27 03:37:45;;;;;;;83.93;45.20;;;;;;;0.50;46.71;98910.84;114981;1199;103086;-77
2021/04/27 03:40:13;;;;;;;78.60;43.50;;;;;;;0.50;46.61;98909.97;114887;1200;103114;-79
2021/04/27 03:42:43;;;;;;;84.20;45.50;;;;;;;0.49;46.35;98909.13;114919;1200;103217;-76
2021/04/27 03:45:13;;;;;;;80.20;42.30;;;;;;;0.48;46.68;98907.41;115007;1199;103110;-78
2021/04/27 03:47:42;;;;;;;70.40;38.90;;;;;;;0.46;46.81;98901.38;114993;1200;103118;-79
2021/04/27 03:50:15;;;;;;;76.33;42.67;;;;;;;0.44;46.52;98909.26;114973;1199;103168;-82
2021/04/27 03:52:42;;;;;;;83.37;44.23;;;;;;;0.43;46.66;98915.40;114946;1200;103203;-78
2021/04/27 03:55:12;;;;;;;78.70;42.47;;;;;;;0.43;47.21;98914.56;114959;1200;103037;-78
2021/04/27 03:57:39;;;;;;;79.37;40.83;;;;;;;0.42;47.39;98921.54;115022;1200;103073;-83
2021/04/27 04:00:08;;;;;;;78.80;42.20;;;;;;;0.41;46.75;98925.06;114891;1200;103081;-82
2021/04/27 04:02:35;;;;;;;70.73;38.80;;;;;;;0.41;47.14;98924.22;114951;1200;103149;-79
2021/04/27 04:05:04;;;;;;;70.10;37.60;;;;;;;0.42;47.32;98928.55;114912;1200;103145;-79
2021/04/27 04:07:32;;;;;;;80.00;39.95;;;;;;;0.43;46.71;98927.64;114990;1200;103555;-78
2021/04/27 04:09:59;;;;;;;68.60;39.10;;;;;;;0.43;47.39;98928.48;115014;1199;103098;-78
2021/04/27 04:12:26;;;;;;;74.35;39.70;;;;;;;0.44;47.09;98929.36;114959;1200;103088;-78
2021/04/27 04:14:59;;;;;;;77.90;41.13;;;;;;;0.46;47.00;98929.29;114978;1200;103124;-80
2021/04/27 04:17:28;;;;;;;74.67;40.07;;;;;;;0.47;47.75;98928.38;114953;1199;103102;-80
2021/04/27 04:19:56;;;;;;;73.43;41.80;;;;;;;0.48;47.67;98930.09;115035;1200;103039;-80
2021/04/27 04:22:24;;;;;;;78.20;42.20;;;;;;;0.48;47.66;98935.33;114999;1199;103430;-78
2021/04/27 04:24:52;;;;;;;76.33;42.00;;;;;;;0.49;47.28;98927.45;114907;1200;103147;-74
2021/04/27 04:27:20;;;;;;;81.00;41.60;;;;;;;0.52;47.14;98932.58;114909;1200;103142;-76
2021/04/27 04:29:47;;;;;;;86.00;46.00;;;;;;;0.54;48.17;98936.00;114908;1200;103139;-76
2021/04/27 04:32:15;;;;;;;75.50;43.00;;;;;;;0.56;47.81;98938.55;114967;1200;103261;-76
2021/04/27 04:34:42;;;;;;;84.77;44.10;;;;;;;0.59;47.62;98944.55;115044;1199;103522;-77
2021/04/27 04:37:10;;;;;;;86.97;45.10;;;;;;;0.63;47.40;98939.19;114978;1200;103062;-77
2021/04/27 04:39:37;;;;;;;87.50;46.27;;;;;;;0.66;47.79;98947.81;115033;1200;103043;-76
2021/04/27 04:42:05;;;;;;;85.70;44.13;;;;;;;0.68;47.68;98948.61;115012;1200;103145;-78
2021/04/27 04:44:32;;;;;;;53.50;25.97;;;;;;;0.73;48.09;98949.31;114907;1199;103161;-79
2021/04/27 04:47:00;;;;;;;78.77;42.70;;;;;;;0.78;48.24;98950.92;114965;1199;103139;-78
2021/04/27 04:49:28;;;;;;;74.20;38.85;;;;;;;0.84;48.33;98955.92;114898;1199;103134;-81
2021/04/27 04:52:00;;;;;;;82.93;44.67;;;;;;;0.90;48.01;98960.95;115087;1200;103005;-80
2021/04/27 04:54:28;;;;;;;76.87;41.30;;;;;;;0.95;48.23;98961.65;114910;1200;103139;-77
2021/04/27 04:56:55;;;;;;;53.40;29.20;;;;;;;1.00;48.20;98961.51;114823;1200;103100;-78
2021/04/27 04:59:23;;;;;;;69.33;36.23;;;;;;;1.07;48.54;98951.66;114952;1200;103139;-79
2021/04/27 05:01:50;;;;;;;61.87;34.47;;;;;;;1.12;48.49;98952.34;114874;1200;103139;-79
2021/04/27 05:04:17;;;;;;;57.20;31.93;;;;;;;1.19;48.37;98959.09;114940;1199;103065;-80
2021/04/27 05:06:45;;;;;;;57.97;31.37;;;;;;;1.25;48.37;98963.23;114948;1199;103062;-80
2021/04/27 05:09:15;;;;;;;56.27;30.10;;;;;;;1.31;48.48;98963.02;114945;1200;103030;-80
2021/04/27 05:11:44;;;;;;;59.40;29.17;;;;;;;1.37;48.64;98964.55;114896;1200;103212;-79
2021/04/27 05:14:12;;;;;;;53.30;28.80;;;;;;;1.44;48.27;98968.66;115538;1199;103584;-80
2021/04/27 05:16:39;;;;;;;53.17;29.33;;;;;;;1.50;48.57;98965.81;114932;1199;103059;-80
2021/04/27 05:19:07;;;;;;;49.75;27.80;;;;;;;1.57;48.68;98963.81;114879;1200;103046;-80
2021/04/27 05:21:34;;;;;;;52.65;30.05;;;;;;;1.63;48.67;98969.66;114919;1199;103155;-80
2021/04/27 05:24:02;;;;;;;60.40;31.85;;;;;;;1.70;48.59;98969.44;114959;1199;103178;-80
2021/04/27 05:26:29;;;;;;;57.75;30.00;;;;;;;1.76;48.60;98970.08;114866;1199;103050;-78
2021/04/27 05:28:57;;;;;;;57.50;31.03;;;;;;;1.83;48.71;98962.82;114866;1200;103142;-79
2021/04/27 05:31:25;;;;;;;62.37;33.30;;;;;;;1.90;48.94;98971.30;114855;1200;103131;-80
2021/04/27 05:33:52;;;;;;;58.17;31.93;;;;;;;1.98;48.92;98968.40;115022;1199;103535;-80
2021/04/27 05:36:22;;;;;;;57.10;31.65;;;;;;;2.05;48.71;98967.22;114977;1200;103197;-81
2021/04/27 05:38:50;;;;;;;59.73;32.20;;;;;;;2.12;48.72;98968.69;114973;1200;103130;-79
2021/04/27 05:41:18;;;;;;;53.15;28.05;;;;;;;2.19;49.34;98970.16;114927;1199;103139;-82
2021/04/27 05:43:45;;;;;;;52.85;28.70;;;;;;;2.28;49.30;98973.34;114986;1199;103179;-76
2021/04/27 05:46:13;;;;;;;57.33;31.03;;;;;;;2.35;49.45;98980.89;114993;1199;103155;-77
2021/04/27 05:48:41;;;;;;;65.77;33.10;;;;;;;2.42;49.38;98973.64;114971;1199;103255;-73
2021/04/27 05:51:08;;;;;;;59.20;30.85;;;;;;;2.50;49.07;98975.95;114911;1199;103143;-78
2021/04/27 05:53:36;;;;;;;54.27;28.27;;;;;;;2.58;49.21;98979.11;114937;1199;103145;-78
2021/04/27 05:56:03;;;;;;;57.30;28.40;;;;;;;2.68;49.60;98980.41;114971;1200;103034;-79
2021/04/27 05:58:31;;;;;;;55.97;27.63;;;;;;;2.76;49.76;98985.38;114920;1200;103139;-78
2021/04/27 06:00:58;;;;;;;56.50;28.47;;;;;;;2.82;49.56;98979.86;114921;1199;103184;-78
2021/04/27 06:03:35;;;;;;;49.20;26.87;;;;;;;2.90;49.65;98981.28;114929;1200;103040;-80
2021/04/27 06:06:03;;;;;;;50.67;27.30;;;;;;;2.99;49.68;98980.89;114995;1200;103063;-80
2021/04/27 06:08:31;;;;;;;47.33;26.33;;;;;;;3.08;49.11;98988.39;114956;1200;103099;-79
2021/04/27 06:10:58;;;;;;;49.30;25.90;;;;;;;3.15;49.51;98988.97;114975;1200;103046;-80
2021/04/27 06:13:27;;;;;;;55.05;26.80;;;;;;;3.24;49.53;98980.69;115120;1200;103121;-78
2021/04/27 06:15:54;;;;;;;61.23;35.07;;;;;;;3.33;49.78;98981.20;114931;1199;103136;-78
2021/04/27 06:18:21;;;;;;;62.80;34.27;;;;;;;3.44;49.61;98984.22;114971;1199;103136;-78
2021/04/27 06:20:49;;;;;;;46.50;22.43;;;;;;;3.53;49.71;98989.05;115043;1200;103146;-78
2021/04/27 06:23:16;;;;;;;39.80;21.30;;;;;;;3.61;49.77;98983.45;114952;1200;103120;-78
2021/04/27 06:25:44;;;;;;;37.73;19.57;;;;;;;3.72;49.73;98988.22;114880;1200;103197;-77
2021/04/27 06:28:14;;;;;;;38.70;18.90;;;;;;;3.80;50.24;98985.23;114841;1199;103117;-78
2021/04/27 06:30:45;;;;;;;36.90;18.83;;;;;;;3.88;50.16;98989.20;114911;1199;103140;-79
2021/04/27 06:33:12;;;;;;;38.95;18.45;;;;;;;3.96;49.61;98988.86;114933;1199;103182;-79
2021/04/27 06:35:42;;;;;;;36.60;18.70;;;;;;;4.04;49.73;98987.66;114921;1200;103059;-77
2021/04/27 06:38:16;;;;;;;39.10;18.60;;;;;;;4.10;49.78;98990.84;115011;1199;103242;-78
2021/04/27 06:40:50;;;;;;;35.45;16.83;;;;;;;4.20;49.66;98991.25;114904;1198;103137;-81
2021/04/27 06:43:19;;;;;;;40.67;19.07;;;;;;;4.25;49.53;98986.63;114896;1200;103089;-77
2021/04/27 06:45:47;;;;;;;47.50;21.83;;;;;;;4.32;49.73;98987.16;114948;1199;103079;-78
2021/04/27 06:48:17;;;;;;;38.70;19.23;;;;;;;4.40;49.43;98995.55;115000;1199;103073;-79
2021/04/27 06:50:45;;;;;;;41.40;18.13;;;;;;;4.47;49.82;98989.06;114931;1200;103325;-76
2021/04/27 06:53:18;;;;;;;36.63;17.50;;;;;;;4.57;49.37;98985.98;114928;1199;102922;-77
2021/04/27 06:55:47;;;;;;;36.23;18.70;;;;;;;4.65;49.76;98989.09;114974;1200;103079;-76
2021/04/27 06:58:19;;;;;;;35.17;18.63;;;;;;;4.75;49.70;98989.48;114939;1199;103155;-76
2021/04/27 07:00:47;;;;;;;25.03;12.00;;;;;;;4.86;49.72;98991.58;114970;1200;103043;-78
2021/04/27 07:03:14;;;;;;;26.03;11.50;;;;;;;4.99;49.63;98991.80;114973;1199;103236;-79
2021/04/27 07:05:45;;;;;;;23.70;9.75;;;;;;;5.16;49.66;98993.56;114950;1199;103143;-78
2021/04/27 07:08:13;;;;;;;22.45;9.90;;;;;;;6.37;48.73;98979.19;115016;1200;103040;-77
2021/04/27 07:10:40;;;;;;;21.15;8.00;;;;;;;8.74;47.44;98985.10;114906;1200;103118;-77
2021/04/27 07:13:08;;;;;;;19.90;7.97;;;;;;;10.86;47.44;98979.97;114952;1200;103066;-76
2021/04/27 07:15:35;;;;;;;19.20;7.40;;;;;;;12.97;47.33;98975.84;114909;1200;103184;-76
2021/04/27 07:18:02;;;;;;;19.80;7.60;;;;;;;14.79;47.50;98975.16;114878;1200;103157;-76
2021/04/27 07:20:30;;;;;;;14.27;5.23;;;;;;;16.58;47.61;98967.16;114910;1200;103133;-78
2021/04/27 07:22:59;;;;;;;16.35;5.75;;;;;;;17.96;47.36;98960.40;114939;1200;103098;-77
2021/04/27 07:25:26;;;;;;;17.13;6.47;;;;;;;19.53;47.82;98965.97;114975;1199;103030;-76
2021/04/27 07:27:54;;;;;;;14.80;5.50;;;;;;;20.92;47.73;98962.78;114976;1200;103108;-76
2021/04/27 07:30:22;;;;;;;13.40;5.50;;;;;;;22.09;47.66;98963.28;114949;1200;103037;-77
2021/04/27 07:32:50;;;;;;;11.55;4.90;;;;;;;23.17;47.58;98965.25;114987;1199;103108;-76
2021/04/27 07:35:18;;;;;;;9.70;4.30;;;;;;;23.49;46.96;98963.01;114938;1200;103079;-75
2021/04/27 07:37:46;;;;;;;14.03;5.13;;;;;;;24.26;47.68;98954.02;114981;1200;103149;-76
2021/04/27 07:40:15;;;;;;;11.60;5.50;;;;;;;25.44;47.48;98956.52;114933;1200;103108;-77
2021/04/27 07:42:43;;;;;;;11.93;5.23;;;;;;;26.49;47.35;98955.56;114898;1200;103105;-76
2021/04/27 07:45:14;;;;;;;17.43;6.87;;;;;;;26.68;46.11;98969.28;114952;1200;103097;-77
2021/04/27 07:47:43;;;;;;;19.23;6.60;;;;;;;27.15;46.71;98966.23;114920;1200;103036;-76
2021/04/27 07:50:11;;;;;;;12.47;5.00;;;;;;;27.29;47.23;98970.53;114939;1200;103039;-77
2021/04/27 07:52:39;;;;;;;16.90;6.57;;;;;;;27.76;46.30;98966.54;115033;1199;103043;-77
2021/04/27 07:55:10;;;;;;;15.50;6.17;;;;;;;27.55;46.31;98973.27;114949;1199;103062;-75
2021/04/27 07:57:38;;;;;;;12.43;5.70;;;;;;;28.20;45.57;98969.20;114986;1200;103638;-76
2021/04/27 08:00:08;;;;;;;12.50;5.73;;;;;;;28.91;45.48;98972.25;114905;1200;103084;-75
2021/04/27 08:02:37;;;;;;;11.40;5.13;;;;;;;28.74;44.10;98971.21;115062;1200;103062;-76
2021/04/27 08:05:07;;;;;;;12.90;5.83;;;;;;;26.20;44.66;98976.87;114971;1200;103082;-77
2021/04/27 08:07:35;;;;;;;12.70;5.80;;;;;;;25.53;43.41;98971.59;114930;1198;103487;-76
2021/04/27 08:10:06;;;;;;;13.17;5.53;;;;;;;24.73;43.63;98977.81;114937;1200;103102;-76
2021/04/27 08:12:33;;;;;;;13.90;6.10;;;;;;;23.48;44.39;98983.05;114975;1200;103130;-76
2021/04/27 08:15:01;;;;;;;12.10;5.80;;;;;;;22.66;44.37;98984.38;114951;1200;103501;-76
2021/04/27 08:17:29;;;;;;;11.87;5.53;;;;;;;21.94;43.80;98992.27;114984;1199;103172;-75
2021/04/27 08:19:57;;;;;;;11.95;5.30;;;;;;;21.26;43.45;98993.09;114971;1199;103220;-76
2021/04/27 08:22:26;;;;;;;11.17;5.10;;;;;;;20.56;42.74;98994.95;114958;1200;103070;-77
2021/04/27 08:24:54;;;;;;;13.43;5.40;;;;;;;19.75;41.99;99002.17;114904;1200;103114;-77
2021/04/27 08:27:23;;;;;;;13.17;5.87;;;;;;;19.03;42.06;99006.47;114948;1200;103056;-76
2021/04/27 08:29:52;;;;;;;11.90;5.60;;;;;;;18.30;41.61;99003.47;114927;1200;103185;-75
2021/04/27 08:32:21;;;;;;;13.70;5.53;;;;;;;17.83;41.56;99009.28;114925;1199;103522;-75
2021/04/27 08:34:49;;;;;;;15.37;6.30;;;;;;;17.48;41.10;99011.92;115007;1199;103178;-75
2021/04/27 08:37:16;;;;;;;11.87;5.40;;;;;;;16.79;40.67;99007.13;114929;1200;103161;-75
2021/04/27 08:39:44;;;;;;;12.57;5.40;;;;;;;16.31;40.49;99001.11;114940;1200;103519;-76
2021/04/27 08:42:11;;;;;;;13.05;5.60;;;;;;;16.02;40.32;99007.48;114964;1200;103105;-77
2021/04/27 08:44:40;;;;;;;13.95;5.45;;;;;;;15.77;40.30;99006.28;114975;1199;103168;-76
2021/04/27 08:47:09;;;;;;;12.43;5.37;;;;;;;16.02;39.66;99003.94;114961;1200;103079;-75
2021/04/27 08:49:39;;;;;;;14.47;5.40;;;;;;;16.65;39.25;98999.63;114961;1199;103098;-77
2021/04/27 08:52:07;;;;;;;14.27;5.13;;;;;;;16.96;38.95;99001.95;114973;1199;103031;-76
2021/04/27 08:54:35;;;;;;;13.60;5.00;;;;;;;16.48;39.00;98998.62;114968;1200;103256;-76
2021/04/27 08:57:05;;;;;;;17.80;5.90;;;;;;;16.14;39.10;99013.49;114945;1200;103258;-77
2021/04/27 08:59:32;;;;;;;16.30;6.10;;;;;;;15.70;38.67;99007.85;114970;1200;103149;-77
2021/04/27 09:02:02;;;;;;;17.25;5.95;;;;;;;15.25;38.67;99006.70;114900;1200;103136;-77
2021/04/27 09:04:44;;;;;;;17.23;5.70;;;;;;;14.68;38.58;99002.02;114930;1199;103037;-76
2021/04/27 09:07:14;;;;;;;15.55;5.65;;;;;;;14.17;38.14;99018.11;114962;1199;103139;-77
2021/04/27 09:09:44;;;;;;;14.17;5.23;;;;;;;13.68;38.26;99010.73;114958;1200;103057;-78
2021/04/27 09:12:13;;;;;;;17.30;5.43;;;;;;;13.72;37.95;99003.32;114958;1200;103037;-76
2021/04/27 09:14:42;;;;;;;15.47;5.70;;;;;;;13.72;38.15;99005.99;115001;1198;103062;-77
2021/04/27 09:17:12;;;;;;;13.20;5.10;;;;;;;14.57;37.93;99001.16;114982;1199;103069;-78
2021/04/27 09:19:52;;;;;;;17.07;5.53;;;;;;;15.72;37.75;98995.97;114971;1200;103129;-77
2021/04/27 09:22:22;;;;;;;14.50;5.03;;;;;;;16.82;37.71;98988.03;114916;1200;103040;-76
2021/04/27 09:24:51;;;;;;;12.15;5.80;;;;;;;17.84;38.21;98995.66;114875;1199;103126;-73
2021/04/27 09:27:44;;;;;;;15.37;5.27;;;;;;;18.60;37.85;98993.09;114849;1200;103152;-76
2021/04/27 09:30:27;;;;;;;22.40;10.85;;;;;;;18.56;37.81;98991.73;114814;1199;103132;-79
2021/04/27 09:33:07;;;;;;;13.73;5.50;;;;;;;17.98;37.20;98990.69;114793;1199;103062;-78
2021/04/27 09:35:41;;;;;;;13.93;5.27;;;;;;;17.53;37.34;98996.16;114686;1199;103072;-78
2021/04/27 09:38:11;;;;;;;13.53;5.73;;;;;;;17.96;36.99;98992.69;114839;1200;103050;-77
2021/04/27 09:41:01;;;;;;;15.23;5.57;;;;;;;17.67;37.11;98986.66;114885;1200;103079;-78
2021/04/27 09:43:34;;;;;;;12.30;5.20;;;;;;;18.38;37.67;98985.63;114977;1200;103518;-78
2021/04/27 09:46:06;;;;;;;16.43;6.00;;;;;;;19.15;37.42;98981.88;114953;1199;103079;-78
2021/04/27 09:48:46;;;;;;;15.55;6.00;;;;;;;19.85;37.11;98980.38;114881;1200;103111;-76
2021/04/27 09:51:36;;;;;;;13.83;5.63;;;;;;;20.36;37.41;98981.88;114895;1200;103142;-75
2021/04/27 09:54:13;;;;;;;11.73;5.03;;;;;;;20.53;37.44;98969.97;114875;1200;103037;-75
2021/04/27 09:56:49;;;;;;;13.37;5.10;;;;;;;20.45;37.64;98975.42;114917;1200;103040;-75
2021/04/27 09:59:28;;;;;;;13.50;5.40;;;;;;;20.09;37.50;98970.55;114955;1200;103136;-75
2021/04/27 10:02:05;;;;;;;12.87;5.53;;;;;;;19.75;37.35;98975.19;114920;1200;103175;-76
2021/04/27 10:04:33;;;;;;;16.10;6.30;;;;;;;19.42;36.95;98972.58;114889;1200;103177;-76
2021/04/27 10:07:02;;;;;;;13.23;5.03;;;;;;;19.04;36.78;98967.72;114929;1199;103059;-77
2021/04/27 10:09:32;;;;;;;11.90;4.87;;;;;;;18.52;36.22;98970.70;114933;1200;103059;-75
2021/04/27 10:12:21;;;;;;;16.90;5.30;;;;;;;17.91;36.86;98971.66;114922;1200;103156;-78
2021/04/27 10:14:48;;;;;;;12.17;4.60;;;;;;;17.55;36.37;98972.64;114879;1200;103065;-78
2021/04/27 10:17:19;;;;;;;14.80;5.60;;;;;;;17.32;36.39;98964.27;114862;1199;103168;-78
2021/04/27 10:19:48;;;;;;;13.85;5.10;;;;;;;16.99;35.73;98968.55;114823;1200;103066;-79
2021/04/27 10:22:16;;;;;;;10.30;4.30;;;;;;;16.63;35.70;98970.22;114956;1200;103487;-78
2021/04/27 10:24:44;;;;;;;14.20;4.15;;;;;;;16.45;35.58;98958.65;114919;1200;103062;-78
2021/04/27 10:27:14;;;;;;;11.80;4.53;;;;;;;16.32;35.40;98951.80;114871;1200;103322;-78
2021/04/27 10:29:41;;;;;;;10.20;4.23;;;;;;;16.05;35.28;98968.77;114972;1200;103150;-77
2021/04/27 10:32:23;;;;;;;9.27;4.17;;;;;;;15.78;35.17;98957.84;114851;1200;103037;-77
2021/04/27 10:34:56;;;;;;;11.27;4.63;;;;;;;15.59;35.05;98949.90;115025;1199;103059;-77
2021/04/27 10:38:03;;;;;;;18.67;4.90;;;;;;;15.45;35.00;98956.59;114960;1200;103043;-77
2021/04/27 10:40:54;;;;;;;19.20;5.27;;;;;;;15.16;34.69;98955.66;115059;1200;103132;-78
2021/04/27 10:43:23;;;;;;;14.17;4.83;;;;;;;14.82;34.55;98948.09;114868;1199;103037;-79
2021/04/27 10:46:00;;;;;;;16.70;4.85;;;;;;;14.57;34.75;98952.16;114801;1200;103040;-80
2021/04/27 10:48:31;;;;;;;13.25;5.05;;;;;;;14.37;34.43;98946.77;114786;1200;103229;-79
2021/04/27 10:51:20;;;;;;;14.80;5.75;;;;;;;14.07;34.23;98939.67;114891;1200;103102;-79
2021/04/27 10:54:08;;;;;;;13.00;5.73;;;;;;;13.86;34.14;98948.64;114832;1200;103210;-78
2021/04/27 10:56:47;;;;;;;23.60;5.17;;;;;;;13.62;34.36;98955.17;114869;1200;104251;-79
2021/04/27 10:59:22;;;;;;;13.10;5.20;;;;;;;13.41;34.01;98949.88;114913;1199;103059;-78
2021/04/27 11:02:13;;;;;;;10.50;4.60;;;;;;;13.21;34.15;98943.55;114930;1199;103178;-78
2021/04/27 11:04:48;;;;;;;13.17;4.73;;;;;;;13.11;33.93;98946.13;114972;1200;103133;-78
2021/04/27 11:07:19;;;;;;;13.10;4.67;;;;;;;13.13;34.13;98938.01;114917;1200;103073;-77
2021/04/27 11:09:58;;;;;;;12.43;4.60;;;;;;;13.26;34.18;98943.97;114922;1200;103062;-79
2021/04/27 11:12:52;;;;;;;11.60;4.70;;;;;;;13.31;34.02;98940.92;115588;1199;103056;-78
2021/04/27 11:15:34;;;;;;;14.10;4.90;;;;;;;13.28;33.91;98939.34;114985;1199;103059;-79
2021/04/27 11:18:11;;;;;;;13.80;4.93;;;;;;;13.38;33.87;98937.58;114953;1199;103083;-78
2021/04/27 11:21:09;;;;;;;11.13;4.60;;;;;;;13.50;33.91;98938.36;114949;1200;103073;-76
2021/04/27 11:23:40;;;;;;;13.50;4.80;;;;;;;13.44;33.79;98930.91;114855;1200;103066;-77